This is the latest recevied weather packets stored in our database for station/object DO2DV-13. If no packets are shown the sender has not sent any weather packets the latest 10 day(s).
| Time | Temp. | Humidity | Pressure | Rain* | Wind** | Luminosity | Snow |
|---|---|---|---|---|---|---|---|
| 1777673440 | 8.33° C | 78% | 1023.6 hPa | 0 mm | - | 0 W/m² | - |
| 1777672865 | 8.89° C | 76% | 1023.3 hPa | 0 mm | - | 0 W/m² | - |
| 1777671636 | 8.89° C | 76% | 1023.4 hPa | 0 mm | - | 0 W/m² | - |
| 1777669253 | 10° C | 72% | 1023.4 hPa | 0 mm | - | 0 W/m² | - |
| 1777668658 | 10.56° C | 70% | 1023.4 hPa | 0 mm | - | 0 W/m² | - |
| 1777666850 | 11.67° C | 66% | 1023.3 hPa | 0 mm | - | 0 W/m² | - |
| 1777661474 | 16.11° C | 48% | 1022.9 hPa | 0 mm | - | 1 W/m² | - |
| 1777657873 | 20° C | 33% | 1022.7 hPa | 0 mm | - | 21 W/m² | - |
| 1777655442 | 22.78° C | 28% | 1022.7 hPa | 0 mm | - | 65 W/m² | - |
| 1777654226 | 23.89° C | 26% | 1022.9 hPa | 0 mm | - | 121 W/m² | - |
| 1777650065 | 23.33° C | 25% | 1023.5 hPa | 0 mm | - | 252 W/m² | - |
| 1777649425 | 23.33° C | 26% | 1023.4 hPa | 0 mm | - | 289 W/m² | - |
| 1777646482 | 22.78° C | 26% | 1023.8 hPa | 0 mm | - | 428 W/m² | - |
| 1777644625 | 22.78° C | 26% | 1024.1 hPa | 0 mm | - | 476 W/m² | - |
| 1777641682 | 22.22° C | 25% | 1024.5 hPa | 0 mm | - | 528 W/m² | - |
| 1777639254 | 21.11° C | 26% | 1025.1 hPa | 0 mm | - | 704 W/m² | - |
| 1777635666 | 19.44° C | 29% | 1025.8 hPa | 0 mm | - | 637 W/m² | - |
| 1777629059 | 17.22° C | 33% | 1026.5 hPa | 0 mm | - | 695 W/m² | - |
| 1777628482 | 16.67° C | 33% | 1026.7 hPa | 0 mm | - | 693 W/m² | - |
| 1777625474 | 15.56° C | 34% | 1026.6 hPa | 0 mm | - | 643 W/m² | - |
| 1777617667 | 12.22° C | 39% | 1026.2 hPa | 0 mm | - | 199 W/m² | - |
| 1777616450 | 11.67° C | 40% | 1026.3 hPa | 0 mm | - | 133 W/m² | - |
| 1777615234 | 11.11° C | 40% | 1026.2 hPa | 0 mm | - | 35 W/m² | - |
| 1777614082 | 9.44° C | 47% | 1026.4 hPa | 0 mm | - | 30 W/m² | - |
| 1777609283 | 8.33° C | 46% | 1025.8 hPa | 0 mm | - | 4 W/m² | - |
* Rain latest hour (hover to see other rain measurements)
** Current wind speed in m/s (hover to see current wind gust speed)